Time;durP1;ratioP1;P1;durP2;ratioP2;P2;SDS_P1;SDS_P2;PMS_P1;PMS_P2;Temp;Humidity;BMP_temperature;BMP_pressure;BME280_temperature;BME280_humidity;BME280_pressure;Samples;Min_cycle;Max_cycle;Signal;HPM_P1;HPM_P2
2022/07/30 00:02:08;;;;;;;4.20;1.00;;;;;;;19.65;48.80;100640.23;104219;1277;108817;-73
2022/07/30 00:04:36;;;;;;;2.90;1.00;;;;;;;19.63;49.86;100640.31;104091;1276;138302;-73
2022/07/30 00:07:04;;;;;;;3.80;1.00;;;;;;;19.57;51.03;100642.33;104282;1277;95655;-73
2022/07/30 00:09:32;;;;;;;4.00;1.20;;;;;;;19.51;52.33;100641.40;104121;1277;138073;-74
2022/07/30 00:12:04;;;;;;;5.50;1.30;;;;;;;19.43;53.49;100639.00;104265;1277;100058;-73
2022/07/30 00:14:33;;;;;;;5.60;1.10;;;;;;;19.37;54.44;100636.30;104094;1277;138843;-73
2022/07/30 00:17:03;;;;;;;4.10;1.00;;;;;;;19.26;54.73;100636.04;104339;1276;95240;-73
2022/07/30 00:19:32;;;;;;;4.20;1.10;;;;;;;19.17;54.57;100636.94;104342;1277;95456;-73
2022/07/30 00:22:00;;;;;;;3.60;1.00;;;;;;;19.05;54.61;100631.17;104038;1278;138563;-72
2022/07/30 00:24:28;;;;;;;4.60;1.20;;;;;;;18.97;54.66;100620.97;104249;1277;99293;-73
2022/07/30 00:26:56;;;;;;;3.30;1.10;;;;;;;18.92;54.68;100617.84;104129;1276;138383;-72
2022/07/30 00:29:25;;;;;;;3.70;1.10;;;;;;;18.86;55.12;100611.31;104233;1277;95565;-72
2022/07/30 00:31:55;;;;;;;4.20;1.20;;;;;;;18.81;55.00;100610.19;104327;1277;95250;-73
2022/07/30 00:34:23;;;;;;;4.10;1.20;;;;;;;18.77;54.75;100610.95;104152;1276;138443;-72
2022/07/30 00:36:51;;;;;;;4.30;1.10;;;;;;;18.74;55.04;100606.96;104277;1277;97659;-73
2022/07/30 00:39:19;;;;;;;5.00;1.00;;;;;;;18.76;55.36;100609.04;104115;1277;138060;-73
2022/07/30 00:42:01;;;;;;;4.20;1.10;;;;;;;18.75;54.69;100607.13;104245;1277;95715;-71
2022/07/30 00:44:29;;;;;;;5.40;1.30;;;;;;;18.74;54.95;100609.86;104233;1275;95275;-73
2022/07/30 00:46:57;;;;;;;4.50;1.20;;;;;;;18.72;55.10;100606.73;104255;1277;109698;-73
2022/07/30 00:49:26;;;;;;;4.60;1.00;;;;;;;18.72;54.99;100598.96;104035;1277;251412;-73
2022/07/30 00:51:54;;;;;;;3.80;1.10;;;;;;;18.73;54.90;100594.60;104113;1277;138429;-73
2022/07/30 00:54:22;;;;;;;4.00;1.10;;;;;;;18.70;55.04;100594.39;104238;1277;96089;-73
2022/07/30 00:56:50;;;;;;;4.60;1.20;;;;;;;18.72;54.78;100593.20;104142;1277;138282;-74
2022/07/30 00:59:18;;;;;;;4.30;1.10;;;;;;;18.74;54.86;100591.17;104253;1277;110181;-73
2022/07/30 01:01:46;;;;;;;4.00;1.20;;;;;;;18.72;54.71;100592.33;104256;1277;98890;-73
2022/07/30 01:04:14;;;;;;;4.30;1.30;;;;;;;18.69;54.66;100586.71;104096;1277;138119;-73
2022/07/30 01:06:42;;;;;;;4.40;1.20;;;;;;;18.67;54.81;100583.78;104227;1277;95709;-74
2022/07/30 01:09:10;;;;;;;4.70;1.20;;;;;;;18.65;54.93;100583.92;104131;1276;138273;-74
2022/07/30 01:11:40;;;;;;;3.80;1.20;;;;;;;18.65;54.74;100581.42;104253;1277;109905;-73
2022/07/30 01:14:08;;;;;;;4.40;1.10;;;;;;;18.64;54.93;100576.95;104219;1277;99591;-74
2022/07/30 01:16:40;;;;;;;3.50;1.10;;;;;;;18.62;54.88;100573.31;104119;1276;138086;-73
2022/07/30 01:22:16;;;;;;;5.40;1.20;;;;;;;18.66;54.92;100565.33;104055;1276;138345;-74
2022/07/30 01:25:22;;;;;;;4.30;1.10;;;;;;;18.71;54.92;100567.89;104144;1277;109167;-74
2022/07/30 01:27:56;;;;;;;5.50;1.30;;;;;;;18.75;54.90;100564.30;104044;1281;138469;-74
2022/07/30 01:30:28;;;;;;;4.70;1.10;;;;;;;18.75;54.60;100572.02;104084;1278;109291;-75
2022/07/30 01:32:57;;;;;;;3.50;1.10;;;;;;;18.76;54.90;100573.40;104117;1276;138351;-74
2022/07/30 01:35:28;;;;;;;5.20;1.20;;;;;;;18.70;54.81;100573.38;104509;1275;95592;-74
2022/07/30 01:37:59;;;;;;;4.40;1.40;;;;;;;18.66;54.99;100576.66;104138;1278;110470;-74
2022/07/30 01:40:29;;;;;;;4.70;1.50;;;;;;;18.63;54.92;100571.45;104137;1278;138395;-74
2022/07/30 01:43:00;;;;;;;4.20;1.20;;;;;;;18.63;55.14;100565.86;104249;1277;109478;-75
2022/07/30 01:45:29;;;;;;;5.60;1.30;;;;;;;18.61;55.00;100560.04;104195;1277;139618;-74
2022/07/30 01:48:04;;;;;;;4.30;1.30;;;;;;;18.57;55.39;100551.65;104226;1277;95130;-75
2022/07/30 01:50:34;;;;;;;4.10;1.20;;;;;;;18.55;55.39;100539.90;104090;1277;138951;-72
2022/07/30 01:53:04;;;;;;;4.40;1.30;;;;;;;18.56;55.50;100542.55;104264;1277;99780;-74
2022/07/30 01:55:35;;;;;;;4.00;1.30;;;;;;;18.58;55.80;100541.85;104329;1277;108853;-73
2022/07/30 01:58:05;;;;;;;5.10;1.50;;;;;;;18.59;55.57;100534.47;104062;1277;139231;-74
2022/07/30 02:00:38;;;;;;;4.10;1.10;;;;;;;18.62;55.64;100531.95;104240;1277;95239;-74
2022/07/30 02:03:10;;;;;;;4.70;1.30;;;;;;;18.64;55.76;100531.83;104215;1277;138398;-74
2022/07/30 02:05:41;;;;;;;5.20;1.30;;;;;;;18.60;55.73;100540.15;104168;1277;99453;-75
2022/07/30 02:08:26;;;;;;;5.00;1.10;;;;;;;18.58;55.93;100535.23;104261;1277;108816;-75
2022/07/30 02:11:06;;;;;;;4.50;1.20;;;;;;;18.54;56.04;100532.02;103985;1278;138324;-74
2022/07/30 02:13:46;;;;;;;4.90;1.40;;;;;;;18.52;56.08;100528.91;104051;1278;95694;-74
2022/07/30 02:16:26;;;;;;;4.20;1.30;;;;;;;18.50;56.15;100531.36;104004;1279;138622;-74
2022/07/30 02:19:02;;;;;;;3.80;1.30;;;;;;;18.49;56.21;100530.70;104179;1278;98332;-75
2022/07/30 02:21:38;;;;;;;4.10;1.20;;;;;;;18.50;56.38;100529.90;104157;1277;138252;-73
2022/07/30 02:24:22;;;;;;;4.70;1.10;;;;;;;18.48;56.39;100524.11;104140;1278;96413;-73
2022/07/30 02:26:59;;;;;;;4.40;1.10;;;;;;;18.46;56.39;100518.14;104093;1277;138334;-74
2022/07/30 02:29:29;;;;;;;4.50;1.20;;;;;;;18.44;56.52;100515.89;104232;1277;110029;-74
2022/07/30 02:31:59;;;;;;;4.50;1.20;;;;;;;18.45;56.72;100508.13;104277;1276;99434;-74
2022/07/30 02:34:30;;;;;;;4.90;1.30;;;;;;;18.45;56.76;100499.84;104035;1277;138732;-74
2022/07/30 02:37:00;;;;;;;6.70;1.60;;;;;;;18.47;56.62;100501.19;104308;1276;95365;-74
2022/07/30 02:39:32;;;;;;;4.20;1.20;;;;;;;18.47;56.88;100491.96;104079;1277;138113;-74
2022/07/30 02:42:03;;;;;;;4.20;1.40;;;;;;;18.45;56.86;100483.27;104315;1277;108716;-74
2022/07/30 02:44:32;;;;;;;4.30;1.20;;;;;;;18.47;56.96;100476.88;104365;1277;138790;-74
2022/07/30 02:47:03;;;;;;;3.50;1.10;;;;;;;18.47;56.87;100475.45;104161;1277;107875;-75
2022/07/30 02:49:37;;;;;;;5.30;1.30;;;;;;;18.42;56.88;100473.56;104176;1277;95252;-75
2022/07/30 02:52:12;;;;;;;3.50;1.10;;;;;;;18.42;56.87;100472.14;104086;1278;138130;-73
2022/07/30 02:54:41;;;;;;;4.90;1.20;;;;;;;18.42;57.25;100469.46;104212;1277;109948;-74
2022/07/30 02:57:11;;;;;;;4.70;1.50;;;;;;;18.40;57.16;100470.83;104076;1277;139330;-74
2022/07/30 02:59:42;;;;;;;4.60;1.30;;;;;;;18.41;57.20;100464.98;104416;1276;108596;-74
2022/07/30 03:02:13;;;;;;;3.60;1.30;;;;;;;18.44;57.17;100464.99;104291;1277;95548;-73
2022/07/30 03:04:42;;;;;;;3.20;1.10;;;;;;;18.46;57.33;100464.35;104275;1277;138579;-73
2022/07/30 03:07:10;;;;;;;4.30;1.40;;;;;;;18.47;57.23;100468.28;104322;1276;110228;-74
2022/07/30 03:09:41;;;;;;;3.80;1.20;;;;;;;18.47;57.08;100468.27;104241;1277;141893;-74
2022/07/30 03:12:21;;;;;;;4.00;1.20;;;;;;;18.48;57.18;100468.41;104260;1277;107727;-73
2022/07/30 03:14:51;;;;;;;5.00;1.40;;;;;;;18.50;57.20;100467.52;104191;1274;138751;-73
2022/07/30 03:17:22;;;;;;;4.60;1.30;;;;;;;18.49;57.09;100465.27;104301;1277;95252;-74
2022/07/30 03:19:53;;;;;;;4.20;1.10;;;;;;;18.51;57.23;100468.41;104418;1276;109774;-74
2022/07/30 03:22:25;;;;;;;4.40;1.40;;;;;;;18.50;57.08;100468.09;104517;1277;138661;-74
2022/07/30 03:25:01;;;;;;;4.90;1.30;;;;;;;18.56;57.28;100468.65;104322;1277;107326;-74
2022/07/30 03:27:30;;;;;;;5.20;1.40;;;;;;;18.51;57.59;100462.08;104143;1277;139558;-74
2022/07/30 03:30:01;;;;;;;5.20;1.40;;;;;;;18.44;57.45;100459.98;104260;1276;95257;-73
2022/07/30 03:32:31;;;;;;;4.40;1.40;;;;;;;18.41;57.76;100454.79;104240;1277;109697;-73
2022/07/30 03:35:01;;;;;;;7.80;1.50;;;;;;;18.36;58.01;100454.67;104504;1277;99411;-73
2022/07/30 03:37:38;;;;;;;4.70;1.10;;;;;;;18.33;57.91;100448.23;104132;1277;107826;-73
2022/07/30 03:40:07;;;;;;;3.70;1.20;;;;;;;18.36;58.20;100449.84;104126;1277;139675;-74
2022/07/30 03:42:36;;;;;;;5.90;1.20;;;;;;;18.35;58.06;100448.64;104731;1277;95323;-73
2022/07/30 03:45:07;;;;;;;4.90;1.20;;;;;;;18.36;58.43;100451.27;104099;1277;138201;-74
2022/07/30 03:47:39;;;;;;;3.80;1.20;;;;;;;18.39;58.33;100452.52;104228;1277;98539;-73
2022/07/30 03:50:08;;;;;;;5.00;1.30;;;;;;;18.40;58.38;100459.66;104476;1277;109101;-73
2022/07/30 03:52:39;;;;;;;5.10;1.50;;;;;;;18.36;58.28;100461.52;104190;1277;139395;-74
2022/07/30 03:55:10;;;;;;;4.30;1.20;;;;;;;18.41;58.39;100459.09;104257;1277;95559;-74
2022/07/30 03:58:11;;;;;;;3.70;1.30;;;;;;;18.43;58.29;100468.31;103815;1277;138155;-73
2022/07/30 04:00:39;;;;;;;4.00;1.20;;;;;;;18.40;58.44;100469.90;104209;1277;99390;-74
2022/07/30 04:03:08;;;;;;;3.90;1.30;;;;;;;18.41;58.51;100471.86;104194;1277;139415;-74
2022/07/30 04:05:47;;;;;;;5.10;1.40;;;;;;;18.44;58.38;100475.47;104244;1277;95137;-73
2022/07/30 04:08:15;;;;;;;3.90;1.20;;;;;;;18.47;58.52;100480.67;104195;1277;95220;-74
2022/07/30 04:10:43;;;;;;;4.90;1.60;;;;;;;18.53;58.32;100485.70;104079;1277;137039;-74
2022/07/30 04:13:11;;;;;;;4.50;1.20;;;;;;;18.58;58.21;100487.20;104337;1277;99940;-73
2022/07/30 04:15:50;;;;;;;4.80;1.40;;;;;;;18.60;58.33;100488.73;104057;1277;138111;-74
2022/07/30 04:18:43;;;;;;;4.10;1.20;;;;;;;18.64;58.21;100482.58;104289;1276;95268;-73
2022/07/30 04:21:17;;;;;;;4.70;1.30;;;;;;;18.68;58.27;100477.42;104289;1277;138865;-74
2022/07/30 04:23:48;;;;;;;4.10;1.20;;;;;;;18.65;58.36;100474.77;104229;1276;109662;-73
2022/07/30 04:26:35;;;;;;;3.30;1.10;;;;;;;18.63;58.48;100475.25;104192;1277;138418;-73
2022/07/30 04:29:09;;;;;;;5.20;1.40;;;;;;;18.71;58.49;100472.40;104111;1280;107670;-72
2022/07/30 04:31:41;;;;;;;4.20;1.30;;;;;;;18.79;58.40;100471.42;104215;1276;95438;-73
2022/07/30 04:34:29;;;;;;;3.80;1.20;;;;;;;18.78;58.08;100470.96;104163;1274;138658;-74
2022/07/30 04:36:57;;;;;;;3.90;1.40;;;;;;;18.71;58.17;100466.86;104288;1277;110396;-73
2022/07/30 04:39:28;;;;;;;5.10;1.30;;;;;;;18.71;58.81;100471.70;104221;1277;138219;-73
2022/07/30 04:41:56;;;;;;;4.60;1.40;;;;;;;18.78;58.65;100473.60;104210;1276;108229;-74
2022/07/30 04:44:37;;;;;;;4.40;1.30;;;;;;;18.82;58.39;100474.85;104162;1277;138868;-74
2022/07/30 04:47:34;;;;;;;4.40;1.30;;;;;;;18.80;58.08;100472.95;104205;1277;95459;-73
2022/07/30 04:50:25;;;;;;;4.30;1.30;;;;;;;18.73;58.31;100468.71;104187;1277;109735;-73
2022/07/30 04:52:55;;;;;;;3.50;1.20;;;;;;;18.69;58.95;100467.16;104046;1277;138902;-74
2022/07/30 04:55:27;;;;;;;5.40;1.20;;;;;;;18.67;58.82;100466.20;104267;1277;109365;-73
2022/07/30 04:57:56;;;;;;;3.80;1.20;;;;;;;18.67;58.89;100466.00;104118;1277;138975;-73
2022/07/30 05:00:24;;;;;;;4.10;1.40;;;;;;;18.72;59.00;100465.91;104243;1277;96729;-73
2022/07/30 05:02:54;;;;;;;5.40;1.30;;;;;;;18.75;59.10;100457.63;104159;1274;138471;-74
2022/07/30 05:05:24;;;;;;;4.70;1.30;;;;;;;18.77;58.89;100452.52;104170;1277;98504;-73
2022/07/30 05:07:54;;;;;;;5.00;1.60;;;;;;;18.76;58.89;100453.80;104504;1275;110699;-74
2022/07/30 05:10:22;;;;;;;4.20;1.30;;;;;;;18.70;58.88;100455.75;104083;1277;138267;-74
2022/07/30 05:12:50;;;;;;;3.70;1.20;;;;;;;18.69;59.03;100462.13;104284;1276;95142;-73
2022/07/30 05:15:18;;;;;;;5.00;1.40;;;;;;;18.70;59.32;100465.84;104121;1277;139482;-72
2022/07/30 05:17:47;;;;;;;5.10;1.30;;;;;;;18.75;59.31;100465.69;104319;1277;99456;-74
2022/07/30 05:20:15;;;;;;;4.70;1.40;;;;;;;18.81;59.37;100468.93;104288;1277;109453;-73
2022/07/30 05:23:16;;;;;;;4.30;1.30;;;;;;;18.80;59.09;100469.71;104489;1276;95636;-74
2022/07/30 05:25:49;;;;;;;4.80;1.50;;;;;;;18.84;59.20;100466.80;104242;1277;95137;-74
2022/07/30 05:28:27;;;;;;;3.30;1.40;;;;;;;18.88;59.22;100461.36;104220;1277;138117;-75
2022/07/30 05:30:56;;;;;;;3.80;1.30;;;;;;;18.86;59.28;100459.29;104578;1277;98328;-74
2022/07/30 05:33:25;;;;;;;4.70;1.30;;;;;;;18.81;59.26;100451.13;104227;1277;138454;-72
2022/07/30 05:36:11;;;;;;;4.00;1.30;;;;;;;18.78;59.80;100443.42;104705;1277;95656;-74
2022/07/30 05:38:39;;;;;;;5.20;1.50;;;;;;;18.76;59.94;100439.56;104149;1277;138582;-73
2022/07/30 05:41:29;;;;;;;4.70;1.40;;;;;;;18.76;59.85;100439.93;104298;1274;110089;-74
2022/07/30 05:44:13;;;;;;;4.60;1.50;;;;;;;18.78;60.13;100443.75;104267;1276;99382;-74
2022/07/30 05:46:41;;;;;;;4.50;1.50;;;;;;;18.78;59.94;100442.19;104079;1277;138619;-74
2022/07/30 05:49:09;;;;;;;6.70;1.50;;;;;;;18.78;60.67;100443.27;104283;1275;95729;-74
2022/07/30 05:51:38;;;;;;;4.50;1.40;;;;;;;18.77;62.05;100440.59;104145;1277;139328;-74
2022/07/30 05:54:06;;;;;;;4.00;1.50;;;;;;;18.77;62.76;100447.25;104268;1275;108907;-74
2022/07/30 05:56:46;;;;;;;4.70;1.70;;;;;;;18.79;62.77;100448.42;104205;1276;138893;-74
2022/07/30 05:59:19;;;;;;;5.80;1.50;;;;;;;18.83;63.29;100445.83;104233;1277;109384;-74
2022/07/30 06:02:09;;;;;;;5.00;1.40;;;;;;;18.82;63.10;100447.34;104251;1277;95293;-74
2022/07/30 06:04:51;;;;;;;5.00;1.50;;;;;;;18.83;63.33;100446.87;104155;1277;139151;-74
2022/07/30 06:07:19;;;;;;;6.40;1.40;;;;;;;18.80;63.44;100451.19;104352;1277;109849;-74
2022/07/30 06:09:47;;;;;;;5.80;1.60;;;;;;;18.81;63.58;100452.22;104099;1277;138713;-74
2022/07/30 06:12:15;;;;;;;4.10;1.60;;;;;;;18.80;63.45;100455.89;104214;1277;108814;-73
2022/07/30 06:14:43;;;;;;;5.30;1.60;;;;;;;18.87;63.78;100456.91;104141;1276;139290;-74
2022/07/30 06:17:15;;;;;;;5.60;1.60;;;;;;;18.88;64.14;100451.99;104186;1276;95634;-73
2022/07/30 06:20:00;;;;;;;4.60;1.50;;;;;;;18.84;64.45;100451.49;104159;1278;109823;-73
2022/07/30 06:22:30;;;;;;;4.70;1.90;;;;;;;18.87;64.75;100446.48;104054;1277;139263;-73
2022/07/30 06:25:02;;;;;;;6.70;1.70;;;;;;;18.94;64.96;100446.09;104189;1276;109422;-73
2022/07/30 06:27:32;;;;;;;6.00;1.70;;;;;;;18.96;64.85;100443.48;104139;1277;139049;-73
2022/07/30 06:30:08;;;;;;;5.30;1.70;;;;;;;18.89;64.44;100442.23;104202;1276;95148;-73
2022/07/30 06:32:36;;;;;;;5.20;1.60;;;;;;;18.85;64.85;100438.10;104050;1277;138867;-72
2022/07/30 06:35:06;;;;;;;6.90;1.80;;;;;;;18.82;65.41;100433.98;104210;1276;99719;-71
2022/07/30 06:37:34;;;;;;;4.50;1.70;;;;;;;18.80;65.64;100429.95;104179;1277;107766;-72
2022/07/30 06:40:23;;;;;;;7.90;1.80;;;;;;;18.78;65.47;100426.17;104065;1277;139268;-73
2022/07/30 06:43:02;;;;;;;5.40;1.70;;;;;;;18.81;65.48;100427.94;104262;1277;95188;-73
2022/07/30 06:45:42;;;;;;;5.80;1.70;;;;;;;18.89;65.30;100431.25;104167;1277;138443;-73
2022/07/30 06:48:24;;;;;;;5.90;1.60;;;;;;;18.93;65.22;100426.70;104323;1277;98356;-72
2022/07/30 06:50:52;;;;;;;5.40;1.60;;;;;;;18.95;65.37;100424.10;104100;1277;138285;-72
2022/07/30 06:53:20;;;;;;;5.80;1.80;;;;;;;18.96;65.12;100420.25;104160;1276;95294;-73
2022/07/30 06:56:08;;;;;;;4.40;1.60;;;;;;;18.98;65.26;100412.73;104349;1276;95259;-72
2022/07/30 06:58:58;;;;;;;6.80;1.80;;;;;;;19.09;65.06;100408.64;104190;1277;108860;-73
2022/07/30 07:01:45;;;;;;;5.60;1.80;;;;;;;19.21;64.51;100407.70;104233;1275;99684;-71
2022/07/30 07:04:13;;;;;;;5.60;1.70;;;;;;;19.24;64.36;100412.09;104009;1277;138133;-73
2022/07/30 07:06:41;;;;;;;5.40;1.70;;;;;;;19.29;64.32;100415.70;104258;1277;95320;-73
2022/07/30 07:09:09;;;;;;;5.40;1.80;;;;;;;19.37;64.31;100415.55;104181;1276;139585;-73
2022/07/30 07:11:44;;;;;;;7.20;1.70;;;;;;;19.37;64.08;100409.80;104135;1277;109714;-72
2022/07/30 07:14:14;;;;;;;5.60;1.70;;;;;;;19.40;64.36;100404.76;104241;1275;99414;-72
2022/07/30 07:16:42;;;;;;;5.60;1.60;;;;;;;19.43;64.60;100398.95;104150;1277;138029;-73
2022/07/30 07:19:36;;;;;;;6.40;1.80;;;;;;;19.36;64.10;100396.17;103920;1277;96324;-72
2022/07/30 07:22:25;;;;;;;5.50;1.90;;;;;;;19.27;64.00;100393.31;104130;1276;138159;-72
2022/07/30 07:24:53;;;;;;;5.40;1.70;;;;;;;19.21;64.40;100392.41;104162;1277;109834;-72
2022/07/30 07:27:25;;;;;;;5.90;1.80;;;;;;;19.20;64.36;100395.36;104232;1276;138945;-72
2022/07/30 07:29:56;;;;;;;5.70;1.60;;;;;;;19.30;64.47;100401.45;104141;1277;109118;-72
2022/07/30 07:32:34;;;;;;;5.70;1.90;;;;;;;19.47;64.49;100408.25;104051;1277;139527;-73
2022/07/30 07:35:03;;;;;;;6.00;1.70;;;;;;;19.57;63.28;100408.70;104200;1277;96421;-73
2022/07/30 07:37:31;;;;;;;5.80;1.80;;;;;;;19.77;63.76;100408.55;104385;1275;109750;-73
2022/07/30 07:39:59;;;;;;;6.00;1.90;;;;;;;19.85;62.98;100406.19;104087;1277;138710;-73
2022/07/30 07:42:29;;;;;;;5.40;1.60;;;;;;;20.00;63.24;100401.98;104141;1277;108740;-73
2022/07/30 07:44:57;;;;;;;5.70;2.00;;;;;;;20.21;63.14;100400.82;104073;1276;139095;-73
2022/07/30 07:47:25;;;;;;;6.30;2.30;;;;;;;20.38;62.35;100398.59;104164;1277;95332;-73
2022/07/30 07:50:16;;;;;;;5.50;1.90;;;;;;;20.49;61.84;100396.63;104195;1276;109695;-73
2022/07/30 07:52:44;;;;;;;5.30;1.90;;;;;;;20.63;61.61;100394.56;104143;1277;138303;-73
2022/07/30 07:55:12;;;;;;;5.00;1.60;;;;;;;20.84;60.94;100387.95;104203;1277;108769;-73
2022/07/30 07:57:42;;;;;;;6.50;2.10;;;;;;;20.87;59.47;100381.41;104133;1277;138313;-74
2022/07/30 08:00:13;;;;;;;6.30;2.00;;;;;;;20.92;60.14;100378.92;104259;1277;95164;-74
2022/07/30 08:02:48;;;;;;;6.60;1.90;;;;;;;21.11;60.66;100383.16;104103;1276;138645;-73
2022/07/30 08:05:16;;;;;;;5.70;2.00;;;;;;;21.31;60.32;100380.34;104232;1274;99364;-74
2022/07/30 08:07:53;;;;;;;5.70;1.80;;;;;;;21.38;59.49;100378.02;104158;1277;108840;-73
2022/07/30 08:10:53;;;;;;;5.00;1.70;;;;;;;21.33;58.82;100377.10;103914;1277;138197;-72
2022/07/30 08:13:40;;;;;;;6.00;1.80;;;;;;;21.30;59.52;100373.52;104242;1275;95223;-73
2022/07/30 08:16:37;;;;;;;5.30;1.90;;;;;;;21.45;59.67;100367.02;104125;1277;138070;-73
2022/07/30 08:19:32;;;;;;;5.90;1.90;;;;;;;21.50;59.35;100363.92;104259;1276;99519;-73
2022/07/30 08:22:11;;;;;;;5.90;2.10;;;;;;;21.65;59.51;100361.65;104165;1276;139437;-74
2022/07/30 08:24:39;;;;;;;6.10;1.80;;;;;;;21.82;59.24;100355.46;104316;1275;95757;-73
2022/07/30 08:27:08;;;;;;;5.90;1.90;;;;;;;22.06;58.91;100355.56;104097;1277;139054;-73
2022/07/30 08:29:36;;;;;;;6.30;2.00;;;;;;;22.19;57.73;100353.10;104144;1277;110416;-73
2022/07/30 08:32:05;;;;;;;7.10;2.10;;;;;;;22.31;57.86;100349.86;104246;1276;99403;-73
2022/07/30 08:34:35;;;;;;;8.10;2.30;;;;;;;22.39;57.38;100350.86;104117;1276;139125;-73
2022/07/30 08:37:05;;;;;;;6.80;2.10;;;;;;;22.53;57.29;100353.79;104343;1275;95282;-73
2022/07/30 08:39:33;;;;;;;6.90;2.30;;;;;;;22.61;56.51;100354.59;104231;1277;138240;-73
2022/07/30 08:42:03;;;;;;;7.20;1.80;;;;;;;22.61;56.89;100351.94;104232;1274;108609;-73
2022/07/30 08:44:34;;;;;;;6.30;2.10;;;;;;;22.58;57.14;100344.73;104241;1277;139063;-73
2022/07/30 08:47:06;;;;;;;5.40;2.20;;;;;;;22.52;57.29;100344.05;104395;1277;108400;-73
2022/07/30 08:49:52;;;;;;;7.40;2.10;;;;;;;22.63;56.90;100343.64;104546;1274;95699;-73
2022/07/30 08:52:24;;;;;;;16.00;11.70;;;;;;;22.78;57.30;100340.83;104361;1274;138160;-73
2022/07/30 08:55:00;;;;;;;9.20;4.50;;;;;;;22.80;56.58;100344.24;104306;1276;109837;-73
2022/07/30 08:57:29;;;;;;;6.60;2.20;;;;;;;22.86;56.91;100339.05;104387;1274;138453;-74
2022/07/30 08:59:58;;;;;;;5.50;2.10;;;;;;;22.95;56.84;100338.36;104340;1274;109818;-77
2022/07/30 09:02:32;;;;;;;7.90;2.40;;;;;;;23.00;56.14;100336.36;104461;1273;95226;-74
2022/07/30 09:05:04;;;;;;;5.70;1.90;;;;;;;23.08;56.67;100341.91;104357;1274;95579;-71
2022/07/30 09:07:33;;;;;;;6.70;2.20;;;;;;;23.14;55.74;100347.27;104393;1274;110068;-73
2022/07/30 09:10:06;;;;;;;11.00;2.30;;;;;;;23.17;55.86;100348.98;104226;1276;141970;-73
2022/07/30 09:12:37;;;;;;;7.90;2.50;;;;;;;23.16;55.45;100345.25;104516;1274;108891;-73
2022/07/30 09:15:08;;;;;;;64.00;46.30;;;;;;;23.15;55.92;100351.30;104335;1276;139094;-72
2022/07/30 09:17:53;;;;;;;5.80;2.60;;;;;;;23.19;55.35;100351.38;104329;1277;95213;-72
2022/07/30 09:20:24;;;;;;;5.60;2.10;;;;;;;23.34;55.55;100352.14;104501;1274;109933;-72
2022/07/30 09:22:56;;;;;;;6.70;2.20;;;;;;;23.51;55.42;100348.25;104306;1276;138102;-72
2022/07/30 09:25:50;;;;;;;5.80;2.00;;;;;;;23.65;54.84;100350.02;104226;1274;108403;-73
2022/07/30 09:28:37;;;;;;;5.40;2.10;;;;;;;23.62;54.59;100345.96;104210;1276;138809;-74
2022/07/30 09:31:15;;;;;;;4.90;2.00;;;;;;;23.60;54.99;100344.23;104314;1277;95134;-73
2022/07/30 09:34:03;;;;;;;5.60;2.50;;;;;;;23.60;54.84;100342.46;104082;1277;138781;-74
2022/07/30 09:36:49;;;;;;;6.50;2.00;;;;;;;23.56;55.44;100343.88;104286;1276;99450;-74
2022/07/30 09:39:41;;;;;;;4.60;1.80;;;;;;;23.53;55.54;100343.23;104205;1276;138951;-72
2022/07/30 09:42:27;;;;;;;6.50;2.40;;;;;;;23.43;55.35;100342.58;104328;1277;95845;-71
2022/07/30 09:45:14;;;;;;;6.50;2.10;;;;;;;23.41;56.08;100344.40;104303;1276;138444;-73
2022/07/30 09:47:47;;;;;;;8.30;2.50;;;;;;;23.33;55.97;100344.83;106892;1277;109804;-73
2022/07/30 09:50:18;;;;;;;36.10;28.70;;;;;;;23.26;55.68;100342.88;104404;1276;99347;-73
2022/07/30 09:53:07;;;;;;;10.60;5.30;;;;;;;23.17;56.00;100343.95;107426;1276;109034;-73
2022/07/30 09:55:36;;;;;;;6.60;2.50;;;;;;;23.09;55.59;100334.21;107507;1276;93847;-73
2022/07/30 09:58:09;;;;;;;5.40;2.10;;;;;;;23.08;56.62;100335.61;105395;1276;138555;-73
2022/07/30 10:00:44;;;;;;;5.70;2.10;;;;;;;23.03;56.64;100337.05;104481;1276;109677;-72
2022/07/30 10:03:31;;;;;;;5.40;2.30;;;;;;;23.03;56.80;100335.94;104329;1276;138587;-73
2022/07/30 10:06:34;;;;;;;4.70;2.10;;;;;;;23.04;57.72;100341.70;104387;1275;107785;-73
2022/07/30 10:09:09;;;;;;;5.40;2.20;;;;;;;22.93;55.94;100338.39;104297;1275;138499;-71
2022/07/30 10:11:46;;;;;;;5.50;2.00;;;;;;;22.77;54.63;100343.98;104299;1277;95215;-72
2022/07/30 10:14:15;;;;;;;5.30;2.00;;;;;;;22.70;55.22;100343.39;104355;1275;109949;-71
2022/07/30 10:16:51;;;;;;;5.50;2.10;;;;;;;22.67;56.08;100343.45;104178;1276;138093;-70
2022/07/30 10:19:20;;;;;;;5.80;2.10;;;;;;;22.66;56.50;100344.66;104197;1277;108813;-71
2022/07/30 10:22:28;;;;;;;5.80;2.20;;;;;;;22.55;56.13;100344.05;104208;1276;138703;-71
2022/07/30 10:25:25;;;;;;;6.40;2.30;;;;;;;22.46;56.46;100343.45;104381;1276;95940;-72
2022/07/30 10:28:14;;;;;;;5.10;2.10;;;;;;;22.36;57.29;100344.96;105525;1275;138080;-71
2022/07/30 10:30:44;;;;;;;5.00;2.10;;;;;;;22.26;56.79;100347.48;104331;1276;99223;-71
2022/07/30 10:33:12;;;;;;;5.70;2.20;;;;;;;22.16;56.70;100351.15;103549;1276;138394;-72
2022/07/30 10:36:00;;;;;;;4.60;1.90;;;;;;;22.10;57.56;100351.45;104112;1276;95394;-73
2022/07/30 10:38:33;;;;;;;4.60;2.00;;;;;;;22.00;57.41;100353.59;105007;1274;95296;-71
2022/07/30 10:41:27;;;;;;;5.70;2.10;;;;;;;21.94;57.38;100351.58;104657;1275;109717;-71
2022/07/30 10:44:21;;;;;;;6.40;2.20;;;;;;;21.88;57.57;100357.19;104223;1277;98827;-72
2022/07/30 10:47:06;;;;;;;5.20;2.40;;;;;;;21.84;58.04;100355.13;104198;1276;137955;-73
2022/07/30 10:49:37;;;;;;;5.20;2.30;;;;;;;21.83;58.09;100353.59;104228;1276;96365;-73
2022/07/30 10:52:10;;;;;;;5.40;2.10;;;;;;;21.82;58.04;100355.64;104221;1276;139181;-72
2022/07/30 10:54:46;;;;;;;5.00;2.00;;;;;;;21.81;58.74;100357.02;104238;1275;109892;-72
2022/07/30 10:57:20;;;;;;;5.20;2.10;;;;;;;21.74;58.69;100354.67;104079;1277;139281;-73
2022/07/30 10:59:59;;;;;;;5.10;1.90;;;;;;;21.70;59.66;100356.35;104899;1274;108932;-73
2022/07/30 11:02:33;;;;;;;5.20;2.20;;;;;;;21.65;58.88;100353.32;104254;1276;95255;-72
2022/07/30 11:05:18;;;;;;;5.70;2.30;;;;;;;21.61;58.98;100350.91;104375;1276;95435;-72
2022/07/30 11:08:28;;;;;;;7.80;2.30;;;;;;;21.61;59.19;100347.29;104232;1276;109712;-73
2022/07/30 11:11:23;;;;;;;6.00;2.40;;;;;;;21.63;59.13;100346.24;104275;1277;99572;-73
2022/07/30 11:14:11;;;;;;;5.50;2.10;;;;;;;21.63;58.99;100347.32;104319;1274;107405;-73
2022/07/30 11:16:39;;;;;;;8.30;2.40;;;;;;;21.65;60.15;100347.33;104213;1277;140451;-73
2022/07/30 11:19:23;;;;;;;5.30;2.20;;;;;;;21.69;60.87;100350.14;104278;1274;95179;-73
2022/07/30 11:22:37;;;;;;;6.40;2.10;;;;;;;21.74;62.01;100350.66;104149;1276;138857;-73
2022/07/30 11:25:21;;;;;;;5.30;2.10;;;;;;;21.74;63.67;100349.25;104306;1275;99486;-72
2022/07/30 11:27:49;;;;;;;5.90;2.60;;;;;;;21.67;63.47;100344.13;104164;1276;138903;-71
2022/07/30 11:30:21;;;;;;;5.40;2.50;;;;;;;21.58;63.87;100342.96;104187;1276;95800;-71
2022/07/30 11:32:53;;;;;;;5.10;2.40;;;;;;;21.48;63.52;100338.23;104125;1277;138960;-70
2022/07/30 11:35:28;;;;;;;7.30;2.30;;;;;;;21.47;64.54;100339.95;104328;1275;110405;-71
2022/07/30 11:38:16;;;;;;;5.90;2.30;;;;;;;21.45;64.73;100333.77;104255;1277;99420;-70
2022/07/30 11:40:48;;;;;;;5.20;2.40;;;;;;;21.27;64.78;100332.55;104169;1277;139247;-70
2022/07/30 11:43:23;;;;;;;5.30;2.30;;;;;;;21.14;64.99;100334.89;104312;1275;95737;-69
2022/07/30 11:46:21;;;;;;;5.90;2.60;;;;;;;21.06;66.30;100331.55;104196;1275;138943;-71
2022/07/30 11:49:04;;;;;;;6.80;3.00;;;;;;;21.01;67.46;100333.48;104290;1276;109905;-71
2022/07/30 11:51:43;;;;;;;6.50;3.20;;;;;;;20.96;68.03;100329.70;104265;1276;139125;-71